Time;durP1;ratioP1;P1;durP2;ratioP2;P2;SDS_P1;SDS_P2;PMS_P1;PMS_P2;Temp;Humidity;BMP_temperature;BMP_pressure;BME280_temperature;BME280_humidity;BME280_pressure;Samples;Min_cycle;Max_cycle;Signal;HPM_P1;HPM_P2
2022/01/19 05:02:15;;;;;;;15.57;7.38;;;1.70;99.90;;;;;;4906732;29;20060;-80
2022/01/19 05:04:55;;;;;;;10.93;6.20;;;1.80;99.90;;;;;;4910859;29;20116;-82
2022/01/19 05:07:27;;;;;;;15.55;7.25;;;1.80;99.90;;;;;;4910643;29;20120;-80
2022/01/19 05:13:23;;;;;;;14.45;7.57;;;1.90;99.90;;;;;;4909400;29;20088;-81
2022/01/19 05:15:39;;;;;;;13.82;7.38;;;2.00;99.90;;;;;;4908007;29;20051;-83
2022/01/19 05:18:08;;;;;;;14.68;7.63;;;2.10;99.90;;;;;;4907790;29;20104;-82
2022/01/19 05:20:35;;;;;;;12.75;7.30;;;2.10;99.90;;;;;;4907219;29;20060;-81
2022/01/19 05:23:06;;;;;;;16.42;8.02;;;2.20;99.90;;;;;;4907061;29;20053;-85
2022/01/19 05:25:34;;;;;;;13.98;7.32;;;2.30;99.90;;;;;;4900875;29;20162;-80
2022/01/19 05:28:01;;;;;;;14.18;8.07;;;2.30;99.90;;;;;;4906067;29;20132;-80
2022/01/19 05:30:28;;;;;;;15.90;7.57;;;2.30;99.90;;;;;;4906879;29;20132;-80
2022/01/19 05:32:55;;;;;;;14.95;8.02;;;2.40;99.90;;;;;;4906597;29;20091;-80
2022/01/19 05:35:22;;;;;;;12.68;7.30;;;2.40;99.90;;;;;;4908046;29;20109;-83
2022/01/19 05:37:49;;;;;;;13.88;7.47;;;2.40;99.90;;;;;;4906605;29;20135;-83
2022/01/19 05:40:16;;;;;;;16.02;7.88;;;2.50;99.90;;;;;;4907006;29;20467;-83
2022/01/19 05:42:46;;;;;;;15.65;8.30;;;2.50;99.90;;;;;;4906689;29;20049;-80
2022/01/19 05:45:13;;;;;;;15.65;8.77;;;2.50;99.90;;;;;;4906084;29;20048;-82
2022/01/19 05:47:40;;;;;;;13.63;7.80;;;2.50;99.90;;;;;;4906393;29;20049;-79
2022/01/19 05:50:09;;;;;;;12.77;7.68;;;2.50;99.90;;;;;;4906929;29;20162;-81
2022/01/19 05:52:36;;;;;;;14.27;8.13;;;2.50;99.90;;;;;;4905227;29;20103;-82
2022/01/19 05:55:04;;;;;;;15.00;7.63;;;2.60;99.90;;;;;;4904269;29;20131;-80
2022/01/19 05:57:32;;;;;;;11.88;7.60;;;2.60;99.90;;;;;;4886156;29;20473;-80
2022/01/19 06:00:01;;;;;;;14.48;8.30;;;2.60;99.90;;;;;;4903748;29;20053;-81
2022/01/19 06:02:28;;;;;;;15.15;8.02;;;2.60;99.90;;;;;;4900419;29;20530;-80
2022/01/19 06:04:55;;;;;;;16.38;7.93;;;2.70;99.90;;;;;;4904310;29;20131;-84
2022/01/19 06:07:28;;;;;;;14.68;7.95;;;2.70;99.90;;;;;;4903655;29;20468;-83
2022/01/19 06:10:03;;;;;;;15.90;8.40;;;2.70;99.90;;;;;;4905152;29;20495;-83
2022/01/19 06:12:32;;;;;;;16.00;8.70;;;2.80;99.90;;;;;;4905721;29;20112;-81
2022/01/19 06:15:02;;;;;;;15.70;8.20;;;2.80;99.90;;;;;;4907116;29;20108;-83
2022/01/19 06:17:29;;;;;;;13.63;7.85;;;2.80;99.90;;;;;;4907246;29;20117;-85
2022/01/19 06:19:56;;;;;;;12.20;8.05;;;2.80;99.90;;;;;;4906566;29;20095;-84
2022/01/19 06:22:23;;;;;;;15.50;8.85;;;2.70;99.90;;;;;;4905639;29;20132;-80
2022/01/19 06:24:50;;;;;;;15.05;8.90;;;2.80;99.90;;;;;;4905368;29;20136;-80
2022/01/19 06:27:17;;;;;;;13.30;8.20;;;2.70;99.90;;;;;;4905809;29;20135;-82
2022/01/19 06:29:44;;;;;;;13.85;7.85;;;2.70;99.90;;;;;;4906756;29;20135;-82
2022/01/19 06:32:13;;;;;;;15.18;7.97;;;2.60;99.90;;;;;;4906791;29;20116;-81
2022/01/19 06:34:40;;;;;;;16.77;8.52;;;2.60;99.90;;;;;;4907172;29;20084;-80
2022/01/19 06:37:07;;;;;;;13.70;8.45;;;2.60;99.90;;;;;;4907312;29;20117;-84
2022/01/19 06:39:34;;;;;;;13.05;7.72;;;2.50;99.90;;;;;;4906917;29;20068;-84
2022/01/19 06:42:01;;;;;;;14.07;8.10;;;2.50;99.90;;;;;;4909595;29;20056;-81
2022/01/19 06:44:28;;;;;;;13.45;7.82;;;2.40;99.90;;;;;;4908589;29;20072;-81
2022/01/19 06:46:55;;;;;;;13.98;8.18;;;2.40;99.90;;;;;;4909504;29;20080;-78
2022/01/19 06:49:24;;;;;;;14.95;7.90;;;2.30;99.90;;;;;;4906109;29;20498;-82
2022/01/19 06:51:51;;;;;;;15.05;8.27;;;2.30;99.90;;;;;;4907387;29;20064;-83
2022/01/19 06:54:18;;;;;;;15.95;7.95;;;2.30;99.90;;;;;;4907512;29;20083;-81
2022/01/19 06:56:45;;;;;;;13.75;7.75;;;2.30;99.90;;;;;;4907452;29;20079;-81
2022/01/19 06:59:12;;;;;;;13.60;7.38;;;2.30;99.90;;;;;;4907165;29;20475;-82
2022/01/19 07:01:39;;;;;;;15.10;7.85;;;2.30;99.90;;;;;;4906297;29;20155;-82
2022/01/19 07:04:06;;;;;;;13.77;7.40;;;2.20;99.90;;;;;;4902778;29;20107;-82
2022/01/19 07:06:35;;;;;;;14.25;7.95;;;2.20;99.90;;;;;;4905675;29;20056;-80
2022/01/19 07:09:02;;;;;;;14.73;6.60;;;2.10;99.90;;;;;;4909255;29;20091;-83
2022/01/19 07:11:29;;;;;;;14.18;6.85;;;2.00;99.90;;;;;;4909121;29;20075;-82
2022/01/19 07:13:57;;;;;;;11.48;6.90;;;1.90;99.90;;;;;;4906592;29;20553;-80
2022/01/19 07:16:25;;;;;;;12.05;6.72;;;1.80;99.90;;;;;;4906977;29;20052;-82
2022/01/19 07:18:52;;;;;;;11.43;6.38;;;1.70;99.90;;;;;;4906677;29;20094;-82
2022/01/19 07:21:19;;;;;;;13.13;6.13;;;1.60;99.90;;;;;;4906467;29;20076;-81
2022/01/19 07:23:47;;;;;;;12.73;6.88;;;1.60;99.90;;;;;;4907235;29;20084;-83
2022/01/19 07:26:14;;;;;;;13.90;7.28;;;1.60;99.90;;;;;;4907307;29;20131;-83
2022/01/19 07:28:41;;;;;;;13.38;7.75;;;1.60;99.90;;;;;;4908364;29;20143;-84
2022/01/19 07:31:09;;;;;;;14.32;7.95;;;1.60;99.90;;;;;;4907811;29;20080;-85
2022/01/19 07:33:36;;;;;;;12.95;7.32;;;1.60;99.90;;;;;;4907863;29;20188;-79
2022/01/19 07:36:04;;;;;;;15.85;8.27;;;1.60;99.90;;;;;;4905288;29;20072;-80
2022/01/19 07:38:31;;;;;;;15.68;8.27;;;1.70;99.90;;;;;;4906796;29;20091;-85
2022/01/19 07:40:59;;;;;;;17.00;9.13;;;1.70;99.90;;;;;;4906723;29;20136;-79
2022/01/19 07:43:27;;;;;;;14.50;8.40;;;1.70;99.90;;;;;;4903013;29;20152;-80
2022/01/19 07:45:54;;;;;;;16.92;8.98;;;1.70;99.90;;;;;;4902751;29;20072;-81
2022/01/19 07:48:21;;;;;;;15.88;8.90;;;1.80;99.90;;;;;;4901731;29;20127;-80
2022/01/19 07:50:48;;;;;;;15.68;9.27;;;1.80;99.90;;;;;;4903723;29;20144;-80
2022/01/19 07:53:15;;;;;;;15.10;8.88;;;1.90;99.90;;;;;;4902564;29;20112;-82
2022/01/19 07:55:42;;;;;;;15.63;8.93;;;1.90;99.90;;;;;;4902952;29;20128;-80
2022/01/19 07:58:11;;;;;;;14.38;8.75;;;1.90;99.90;;;;;;4909457;29;20061;-81
2022/01/19 08:00:42;;;;;;;18.85;9.48;;;2.00;99.90;;;;;;4910562;29;20108;-81
2022/01/19 08:03:09;;;;;;;15.70;9.15;;;2.00;99.90;;;;;;4909843;29;20072;-81
2022/01/19 08:05:36;;;;;;;16.63;9.27;;;2.00;99.90;;;;;;4909184;29;20057;-80
2022/01/19 08:08:04;;;;;;;14.65;8.85;;;2.10;99.90;;;;;;4906885;29;20080;-81
2022/01/19 08:10:32;;;;;;;14.43;8.98;;;2.10;99.90;;;;;;4908952;29;20472;-81
2022/01/19 08:13:02;;;;;;;14.98;9.15;;;2.20;99.90;;;;;;4907946;29;20116;-80
2022/01/19 08:15:32;;;;;;;14.95;8.80;;;2.20;99.90;;;;;;4910046;29;20490;-84
2022/01/19 08:17:59;;;;;;;14.82;9.15;;;2.20;99.90;;;;;;4904361;29;20096;-79
2022/01/19 08:20:26;;;;;;;16.42;9.07;;;2.30;99.90;;;;;;4902873;29;20510;-79
2022/01/19 08:22:53;;;;;;;16.95;9.30;;;2.30;99.90;;;;;;4906237;29;20120;-82
2022/01/19 08:25:21;;;;;;;17.25;9.63;;;2.30;99.90;;;;;;4902730;29;20045;-79
2022/01/19 08:27:48;;;;;;;15.00;9.05;;;2.30;99.90;;;;;;4907402;29;20140;-81
2022/01/19 08:30:17;;;;;;;18.23;10.13;;;2.40;99.90;;;;;;4904015;29;20119;-79
2022/01/19 08:32:46;;;;;;;16.33;9.88;;;2.40;99.90;;;;;;4902442;29;20144;-80
2022/01/19 08:35:13;;;;;;;15.98;9.65;;;2.40;99.90;;;;;;4902368;29;20061;-81
2022/01/19 08:37:41;;;;;;;15.50;9.48;;;2.50;99.90;;;;;;4904131;29;20052;-82
2022/01/19 08:40:10;;;;;;;14.88;9.73;;;2.50;99.90;;;;;;4907676;29;20474;-79
2022/01/19 08:42:37;;;;;;;14.73;8.88;;;2.50;99.90;;;;;;4905138;29;20060;-82
2022/01/19 08:45:07;;;;;;;14.30;9.27;;;2.50;99.90;;;;;;4903090;29;20140;-79
2022/01/19 08:47:35;;;;;;;13.30;8.80;;;2.50;99.90;;;;;;4904753;29;20474;-85
2022/01/19 08:50:05;;;;;;;15.13;9.20;;;2.50;99.90;;;;;;4905076;29;20116;-82
2022/01/19 08:52:32;;;;;;;15.40;9.10;;;2.50;99.90;;;;;;4903758;29;20387;-81
2022/01/19 08:54:59;;;;;;;17.48;10.02;;;2.60;99.90;;;;;;4903652;29;20129;-82
2022/01/19 08:57:26;;;;;;;18.05;10.02;;;2.60;99.90;;;;;;4902903;29;20083;-81
2022/01/19 08:59:54;;;;;;;17.23;9.75;;;2.60;99.90;;;;;;4902616;29;20405;-78
2022/01/19 09:02:21;;;;;;;16.65;10.23;;;2.60;99.90;;;;;;4902903;29;20124;-81
2022/01/19 09:04:50;;;;;;;16.20;9.95;;;2.70;99.90;;;;;;4903092;29;20112;-83
2022/01/19 09:07:20;;;;;;;17.38;9.60;;;2.60;99.90;;;;;;4902922;29;20052;-79
2022/01/19 09:09:47;;;;;;;16.70;10.45;;;2.70;99.90;;;;;;4901478;29;20052;-81
2022/01/19 09:12:14;;;;;;;17.10;10.32;;;2.70;99.90;;;;;;4903238;29;20547;-81
2022/01/19 09:14:41;;;;;;;18.13;10.73;;;2.70;99.90;;;;;;4902731;29;20117;-79
2022/01/19 09:17:08;;;;;;;16.98;10.57;;;2.70;99.90;;;;;;4902385;29;20052;-82
2022/01/19 09:19:39;;;;;;;15.70;10.77;;;2.70;99.90;;;;;;4901931;29;20269;-80
2022/01/19 09:22:06;;;;;;;18.55;10.82;;;2.70;99.90;;;;;;4902038;29;20533;-80
2022/01/19 09:24:36;;;;;;;17.58;10.55;;;2.80;99.90;;;;;;4901522;29;20139;-80
2022/01/19 09:27:03;;;;;;;16.95;9.90;;;2.90;99.90;;;;;;4901199;29;20143;-82
2022/01/19 09:29:31;;;;;;;17.02;10.52;;;2.90;99.90;;;;;;4900164;29;20140;-78
2022/01/19 09:32:01;;;;;;;16.85;10.20;;;2.90;99.90;;;;;;4901066;29;20059;-80
2022/01/19 09:34:28;;;;;;;16.17;10.13;;;3.00;99.90;;;;;;4901146;29;20057;-80
2022/01/19 09:36:55;;;;;;;18.33;10.10;;;3.00;99.90;;;;;;4900957;29;20132;-81
2022/01/19 09:39:25;;;;;;;17.88;10.60;;;3.00;99.90;;;;;;4900617;29;20062;-80
2022/01/19 09:41:56;;;;;;;16.85;9.90;;;3.10;99.90;;;;;;4900396;29;20475;-79
2022/01/19 09:44:26;;;;;;;16.75;10.35;;;3.10;99.90;;;;;;4900760;29;20053;-81
2022/01/19 09:46:53;;;;;;;15.68;10.07;;;3.20;99.90;;;;;;4900808;29;20159;-78
2022/01/19 09:49:22;;;;;;;19.38;11.20;;;3.20;99.90;;;;;;4900927;29;20055;-80
2022/01/19 09:51:52;;;;;;;16.35;10.45;;;3.20;99.90;;;;;;4900900;29;20512;-79
2022/01/19 09:54:22;;;;;;;18.42;10.98;;;3.20;99.90;;;;;;4901273;29;20067;-79
2022/01/19 09:56:50;;;;;;;17.30;10.45;;;3.20;99.90;;;;;;4901428;29;20087;-80
2022/01/19 09:59:20;;;;;;;18.35;11.32;;;3.20;99.90;;;;;;4901834;29;20109;-79
2022/01/19 10:01:55;;;;;;;19.40;11.80;;;3.20;99.90;;;;;;4900654;29;20076;-86
2022/01/19 10:04:26;;;;;;;16.77;10.50;;;3.20;99.90;;;;;;4901175;29;20540;-82
2022/01/19 10:07:13;;;;;;;20.05;11.50;;;3.30;99.90;;;;;;4901199;29;20140;-79
2022/01/19 10:09:53;;;;;;;18.90;10.55;;;3.30;99.90;;;;;;4900576;29;20053;-79
2022/01/19 10:18:11;;;;;;;15.75;10.40;;;3.50;99.90;;;;;;4904273;29;20059;-80
2022/01/19 10:20:39;;;;;;;16.27;10.50;;;3.50;99.90;;;;;;4904743;29;20132;-82
2022/01/19 10:23:28;;;;;;;17.23;10.52;;;3.60;99.90;;;;;;4899788;29;20140;-80
2022/01/19 10:25:55;;;;;;;15.15;9.85;;;3.60;99.90;;;;;;4900871;29;20056;-80
2022/01/19 10:28:22;;;;;;;18.88;10.73;;;3.60;99.90;;;;;;4899305;29;20095;-82
2022/01/19 10:30:53;;;;;;;15.93;9.68;;;3.70;99.90;;;;;;4898577;29;20135;-82
2022/01/19 10:33:21;;;;;;;15.43;9.60;;;3.70;99.90;;;;;;4900296;29;20132;-84
2022/01/19 10:35:50;;;;;;;18.52;11.10;;;3.80;99.90;;;;;;4901295;29;20140;-84
2022/01/19 10:38:22;;;;;;;16.80;10.10;;;3.90;99.90;;;;;;4883017;29;20087;-81
2022/01/19 10:41:12;;;;;;;17.33;9.98;;;4.00;99.90;;;;;;4901751;29;20131;-78
2022/01/19 10:43:42;;;;;;;15.38;9.48;;;4.10;99.90;;;;;;4899030;29;20410;-83
2022/01/19 10:46:33;;;;;;;18.58;10.45;;;4.10;99.90;;;;;;4900717;29;20132;-84
2022/01/19 10:49:05;;;;;;;14.50;9.43;;;4.30;99.60;;;;;;4899673;29;20517;-82
2022/01/19 10:51:36;;;;;;;19.40;10.00;;;4.30;99.40;;;;;;4899272;29;20235;-82
2022/01/19 10:54:14;;;;;;;17.20;10.13;;;4.40;99.40;;;;;;4899127;29;20451;-81
2022/01/19 10:56:44;;;;;;;15.10;10.50;;;4.50;99.00;;;;;;4898592;29;20080;-83
2022/01/19 10:59:13;;;;;;;19.98;11.05;;;4.50;99.00;;;;;;4898674;29;20135;-83
2022/01/19 11:01:47;;;;;;;17.55;10.77;;;4.60;98.60;;;;;;4898828;29;20391;-80
2022/01/19 11:04:27;;;;;;;19.60;10.23;;;4.70;98.30;;;;;;4901607;29;20053;-85
2022/01/19 11:06:59;;;;;;;18.30;10.20;;;4.70;98.00;;;;;;4898960;29;20506;-83
2022/01/19 11:09:29;;;;;;;16.63;9.55;;;4.80;98.00;;;;;;4894734;29;20144;-83
2022/01/19 11:12:02;;;;;;;16.67;9.57;;;4.80;97.80;;;;;;4899342;29;20467;-85
2022/01/19 11:14:29;;;;;;;17.17;9.80;;;4.90;97.70;;;;;;4899267;29;20055;-80
2022/01/19 11:16:58;;;;;;;13.93;8.73;;;5.00;97.50;;;;;;4902586;29;20512;-82
2022/01/19 11:19:26;;;;;;;15.30;9.25;;;5.10;97.50;;;;;;4905477;29;20083;-85
2022/01/19 11:22:14;;;;;;;13.20;7.88;;;5.10;96.80;;;;;;4904754;29;20049;-82
2022/01/19 11:25:04;;;;;;;13.02;7.80;;;5.20;96.80;;;;;;4898911;29;20507;-83
2022/01/19 11:27:39;;;;;;;12.60;7.60;;;5.20;96.50;;;;;;4898372;29;20143;-80
2022/01/19 11:30:20;;;;;;;12.90;7.57;;;5.20;96.60;;;;;;4898542;29;20056;-81
2022/01/19 11:35:45;;;;;;;12.82;6.80;;;5.30;96.60;;;;;;5131087;27;20383;-81
2022/01/19 11:38:34;;;;;;;12.38;7.07;;;5.40;96.40;;;;;;5110660;28;20078;-81
2022/01/19 11:41:05;;;;;;;11.52;6.88;;;5.50;96.10;;;;;;5110916;28;20104;-80
2022/01/19 11:43:33;;;;;;;12.45;7.00;;;5.50;95.30;;;;;;5110785;28;20135;-80
2022/01/19 11:46:03;;;;;;;12.07;7.18;;;5.60;95.00;;;;;;5110734;28;20052;-80
2022/01/19 11:48:35;;;;;;;12.35;7.03;;;5.60;94.70;;;;;;5110058;28;20114;-80
2022/01/19 11:51:29;;;;;;;11.82;7.03;;;5.60;94.50;;;;;;5110489;28;20546;-80
2022/01/19 11:54:01;;;;;;;;;;;5.70;94.90;;;;;;5100437;28;20058;-80
2022/01/19 11:56:28;;;;;;;13.50;7.35;;;5.70;94.80;;;;;;5110389;28;19920;-80
2022/01/19 11:59:10;;;;;;;12.80;7.45;;;5.80;94.50;;;;;;5110286;28;20130;-81
2022/01/19 12:01:38;;;;;;;12.80;7.03;;;5.80;94.60;;;;;;5109343;28;20514;-81
2022/01/19 12:04:17;;;;;;;10.27;6.88;;;5.90;94.80;;;;;;5110128;28;20079;-80
2022/01/19 12:06:47;;;;;;;12.32;7.03;;;6.00;94.70;;;;;;5109680;28;20129;-79
2022/01/19 12:09:15;;;;;;;12.60;7.07;;;6.10;94.80;;;;;;5110056;28;20400;-79
2022/01/19 12:11:49;;;;;;;11.93;6.57;;;6.20;94.40;;;;;;5110131;28;20083;-80
2022/01/19 12:14:19;;;;;;;11.25;6.68;;;6.20;94.60;;;;;;5109861;28;20129;-81
2022/01/19 12:17:00;;;;;;;11.80;7.25;;;6.30;94.60;;;;;;5110493;28;20084;-79
2022/01/19 12:19:30;;;;;;;11.57;7.03;;;6.40;94.60;;;;;;5110030;28;20051;-80
2022/01/19 12:22:12;;;;;;;10.77;6.53;;;6.50;93.80;;;;;;5110184;28;20043;-81
2022/01/19 12:24:44;;;;;;;12.57;7.05;;;6.60;93.70;;;;;;5110042;28;20044;-80
2022/01/19 12:27:26;;;;;;;12.90;7.10;;;6.70;93.70;;;;;;5109463;28;20048;-81
2022/01/19 12:30:05;;;;;;;12.35;6.82;;;6.80;93.40;;;;;;5109380;28;20075;-80
2022/01/19 12:32:50;;;;;;;11.15;7.00;;;7.00;93.10;;;;;;5109770;28;20135;-80
2022/01/19 12:35:34;;;;;;;12.20;6.90;;;7.00;93.00;;;;;;5109469;28;20143;-81
2022/01/19 12:38:07;;;;;;;12.27;7.10;;;7.10;92.80;;;;;;5109863;28;20120;-80
2022/01/19 12:40:42;;;;;;;13.00;7.20;;;7.20;92.90;;;;;;5109393;28;20382;-80
2022/01/19 12:43:28;;;;;;;13.20;7.57;;;7.30;92.90;;;;;;5109489;28;20126;-78
2022/01/19 12:45:56;;;;;;;12.10;7.28;;;7.40;93.00;;;;;;5103054;28;20405;-80
2022/01/19 12:48:37;;;;;;;12.73;7.32;;;7.50;91.90;;;;;;5096017;28;20072;-80
2022/01/19 12:51:04;;;;;;;12.60;7.32;;;7.70;91.60;;;;;;5095755;28;20492;-80
2022/01/19 12:53:33;;;;;;;13.23;7.65;;;7.80;91.40;;;;;;5095127;28;20132;-80
2022/01/19 12:56:07;;;;;;;11.35;6.55;;;7.80;91.10;;;;;;5095604;28;20447;-80
2022/01/19 12:58:36;;;;;;;11.77;7.55;;;8.00;91.00;;;;;;5094941;28;20055;-79
2022/01/19 13:01:07;;;;;;;12.55;7.07;;;8.10;91.10;;;;;;5095669;28;20052;-79
2022/01/19 13:03:37;;;;;;;12.25;7.50;;;8.30;90.30;;;;;;5095752;28;20461;-81
2022/01/19 13:06:08;;;;;;;12.07;7.00;;;8.40;90.00;;;;;;5095830;28;20505;-79
2022/01/19 13:08:47;;;;;;;13.50;7.63;;;8.40;90.40;;;;;;5095682;28;20094;-80
2022/01/19 13:11:34;;;;;;;12.65;7.43;;;8.70;89.10;;;;;;5095498;28;20044;-80
2022/01/19 13:14:06;;;;;;;14.60;7.97;;;8.90;88.90;;;;;;5095336;28;20465;-79
2022/01/19 13:16:41;;;;;;;11.98;7.90;;;9.10;86.20;;;;;;5095319;28;20138;-81
2022/01/19 13:19:12;;;;;;;11.25;7.47;;;9.20;84.30;;;;;;5095410;28;20051;-81
2022/01/19 13:21:41;;;;;;;14.98;7.35;;;9.10;84.40;;;;;;5095178;28;20139;-80
2022/01/19 13:24:16;;;;;;;12.20;6.63;;;8.90;84.60;;;;;;5095222;28;20196;-81
2022/01/19 13:26:50;;;;;;;15.35;7.88;;;8.80;85.50;;;;;;5094829;28;20140;-78
2022/01/19 13:29:23;;;;;;;11.77;7.05;;;9.00;87.40;;;;;;5095346;28;20127;-80
2022/01/19 13:32:03;;;;;;;10.85;7.18;;;9.80;84.70;;;;;;5095530;28;20044;-79
2022/01/19 13:34:35;;;;;;;11.43;7.50;;;10.50;81.60;;;;;;5094208;28;20136;-79
2022/01/19 13:37:04;;;;;;;13.38;8.70;;;10.90;80.00;;;;;;5094982;28;20131;-79
2022/01/19 13:39:33;;;;;;;13.75;9.40;;;11.60;76.40;;;;;;5094935;28;20541;-78
2022/01/19 13:42:03;;;;;;;12.30;8.73;;;12.00;73.30;;;;;;5098004;28;20048;-80
2022/01/19 13:44:44;;;;;;;15.00;9.05;;;12.60;71.80;;;;;;5094975;28;20140;-79
2022/01/19 13:47:16;;;;;;;13.43;8.85;;;13.40;68.30;;;;;;5094126;28;20040;-80
2022/01/19 13:49:53;;;;;;;15.18;8.95;;;14.40;64.60;;;;;;5095159;28;20469;-78
2022/01/19 13:52:23;;;;;;;12.27;8.15;;;15.60;60.30;;;;;;5094974;28;20044;-80
2022/01/19 13:54:53;;;;;;;13.30;8.65;;;17.20;65.60;;;;;;5094787;28;20044;-77
2022/01/19 13:57:28;;;;;;;13.02;8.18;;;18.70;52.30;;;;;;5094657;28;20087;-80
2022/01/19 13:59:55;;;;;;;12.95;8.27;;;20.20;48.00;;;;;;5094409;28;20050;-79
2022/01/19 14:02:23;;;;;;;11.15;7.82;;;21.30;45.50;;;;;;5093794;28;20075;-80
2022/01/19 14:04:56;;;;;;;12.57;7.63;;;22.30;42.80;;;;;;5094411;28;20082;-79
2022/01/19 14:07:23;;;;;;;9.52;7.60;;;22.10;41.00;;;;;;5094616;28;20079;-78
2022/01/19 14:09:52;;;;;;;10.63;7.18;;;21.10;41.20;;;;;;5093938;28;20079;-80
2022/01/19 14:12:19;;;;;;;11.75;7.45;;;20.00;42.30;;;;;;5094008;28;20047;-80
2022/01/19 14:14:56;;;;;;;10.25;7.20;;;18.90;48.60;;;;;;5094257;28;20047;-79
2022/01/19 14:17:29;;;;;;;11.65;7.57;;;17.80;45.30;;;;;;5074391;28;20052;-80
2022/01/19 14:19:57;;;;;;;12.63;7.90;;;17.20;46.70;;;;;;5074176;28;20072;-81
2022/01/19 14:22:26;;;;;;;13.63;8.88;;;;;;;;;;5074009;28;20132;-80
2022/01/19 14:24:59;;;;;;;14.90;8.95;;;15.10;49.30;;;;;;5073423;28;20070;-79
2022/01/19 14:27:37;;;;;;;14.88;9.18;;;14.40;51.00;;;;;;5073743;28;20524;-80
2022/01/19 14:30:10;;;;;;;14.45;9.05;;;13.40;53.60;;;;;;5073642;28;20132;-80
2022/01/19 14:32:41;;;;;;;15.35;8.52;;;12.60;55.90;;;;;;5073779;28;20045;-81
2022/01/19 14:35:35;;;;;;;11.13;7.55;;;11.80;57.40;;;;;;5073219;28;20574;-79
2022/01/19 14:38:21;;;;;;;12.13;7.90;;;10.80;59.00;;;;;;5073447;28;20048;-78
2022/01/19 14:41:17;;;;;;;12.85;7.68;;;10.20;61.80;;;;;;5073533;28;20579;-78
2022/01/19 14:43:52;;;;;;;10.73;7.22;;;9.80;64.10;;;;;;5061928;28;20040;-80
2022/01/19 14:46:26;;;;;;;12.18;7.35;;;10.20;64.80;;;;;;5094184;28;20048;-79
2022/01/19 14:48:56;;;;;;;11.38;7.22;;;11.40;62.70;;;;;;5093946;28;20066;-80
2022/01/19 14:51:30;;;;;;;12.45;7.03;;;11.80;59.90;;;;;;5093177;28;20112;-80
2022/01/19 14:53:59;;;;;;;9.82;6.63;;;12.80;58.20;;;;;;5093534;28;20134;-80
2022/01/19 14:56:29;;;;;;;11.05;7.20;;;14.10;55.90;;;;;;5093386;28;20048;-78
2022/01/19 14:59:05;;;;;;;11.43;7.53;;;15.20;52.90;;;;;;5093355;28;20507;-78
2022/01/19 15:01:33;;;;;;;10.88;6.95;;;15.50;51.10;;;;;;5093734;28;20134;-79
2022/01/19 15:04:02;;;;;;;10.15;6.43;;;14.60;50.90;;;;;;5092903;28;20051;-78
2022/01/19 15:06:29;;;;;;;9.27;6.25;;;13.40;52.30;;;;;;5093433;28;20079;-80
2022/01/19 15:08:56;;;;;;;10.48;6.43;;;12.60;54.60;;;;;;5094468;28;20127;-80
2022/01/19 15:11:23;;;;;;;11.73;7.05;;;12.50;55.90;;;;;;5097726;28;20040;-81
2022/01/19 15:13:52;;;;;;;11.50;6.82;;;12.80;56.60;;;;;;5093748;28;20131;-80
2022/01/19 15:16:20;;;;;;;11.32;7.00;;;13.40;54.70;;;;;;5093490;28;20134;-80
2022/01/19 15:18:47;;;;;;;10.23;6.38;;;14.20;53.40;;;;;;5092995;28;20126;-78
2022/01/19 15:21:15;;;;;;;11.00;6.95;;;14.70;51.60;;;;;;5093293;28;20058;-81
2022/01/19 15:23:43;;;;;;;10.88;6.88;;;14.80;51.50;;;;;;5093529;28;20044;-80
2022/01/19 15:26:10;;;;;;;10.63;6.43;;;15.00;50.80;;;;;;5094049;28;20131;-80
2022/01/19 15:28:42;;;;;;;10.90;7.00;;;14.70;50.50;;;;;;5091167;28;20054;-78
2022/01/19 15:31:11;;;;;;;10.63;6.97;;;13.80;51.90;;;;;;5092897;28;20055;-79
2022/01/19 15:33:39;;;;;;;11.85;7.50;;;12.60;53.40;;;;;;5092959;28;20047;-81
2022/01/19 15:36:07;;;;;;;10.88;7.15;;;11.50;55.90;;;;;;5092809;28;20488;-81
2022/01/19 15:38:35;;;;;;;13.63;7.35;;;10.60;58.20;;;;;;5093249;28;20047;-79
2022/01/19 15:41:03;;;;;;;12.90;7.30;;;9.70;60.50;;;;;;5092151;28;20135;-80
2022/01/19 15:43:30;;;;;;;13.25;7.60;;;9.20;62.80;;;;;;5092587;28;20131;-80
2022/01/19 15:45:58;;;;;;;14.45;7.63;;;8.70;65.00;;;;;;5092610;28;20135;-80
2022/01/19 15:48:29;;;;;;;12.38;7.30;;;8.20;66.90;;;;;;5092400;28;20135;-81
2022/01/19 15:50:58;;;;;;;11.27;6.40;;;7.80;69.20;;;;;;5092391;28;20532;-81
2022/01/19 15:53:27;;;;;;;10.65;6.53;;;7.50;70.40;;;;;;5092403;28;20056;-80
2022/01/19 15:55:58;;;;;;;12.18;7.03;;;7.20;72.20;;;;;;5088960;28;20154;-80
2022/01/19 15:58:26;;;;;;;15.48;8.07;;;7.10;74.90;;;;;;5091772;28;20505;-80
2022/01/19 16:00:54;;;;;;;12.52;6.90;;;6.90;77.80;;;;;;5090786;28;20079;-80
2022/01/19 16:03:21;;;;;;;10.70;5.95;;;6.80;80.60;;;;;;5091711;28;20522;-80
2022/01/19 16:05:51;;;;;;;12.05;7.13;;;6.70;83.10;;;;;;5090096;28;20048;-80
2022/01/19 16:08:20;;;;;;;12.48;7.00;;;6.60;85.60;;;;;;5090542;28;20089;-80
2022/01/19 16:10:48;;;;;;;12.25;6.63;;;6.50;87.10;;;;;;5092249;28;20082;-80
2022/01/19 16:13:16;;;;;;;10.95;6.45;;;6.40;88.60;;;;;;5091426;28;20488;-79
2022/01/19 16:15:44;;;;;;;11.15;6.25;;;6.30;90.00;;;;;;5092014;28;20123;-79
2022/01/19 16:18:14;;;;;;;12.77;6.78;;;6.30;90.30;;;;;;5091999;28;20079;-78
2022/01/19 16:20:42;;;;;;;11.00;6.15;;;6.20;90.80;;;;;;5092453;28;20051;-79
2022/01/19 16:26:09;;;;;;;13.07;7.30;;;6.10;91.40;;;;;;5095457;28;20125;-81
2022/01/19 16:28:38;;;;;;;10.93;5.97;;;6.00;91.60;;;;;;5095724;28;20499;-81
2022/01/19 16:31:06;;;;;;;11.57;6.63;;;6.00;91.80;;;;;;5096298;28;20040;-82
2022/01/19 16:33:34;;;;;;;11.25;6.10;;;5.90;92.10;;;;;;5095546;28;20051;-81
2022/01/19 16:36:02;;;;;;;12.10;6.68;;;5.90;92.30;;;;;;5095717;28;20040;-81
2022/01/19 16:38:30;;;;;;;11.60;6.05;;;5.90;92.50;;;;;;5095612;28;20075;-81
2022/01/19 16:40:58;;;;;;;12.00;6.75;;;5.90;92.60;;;;;;5096150;28;20079;-80
2022/01/19 16:43:28;;;;;;;11.98;6.60;;;5.80;92.70;;;;;;5096009;28;20076;-81
2022/01/19 16:45:55;;;;;;;14.05;6.88;;;5.80;93.00;;;;;;5095974;28;20048;-81
2022/01/19 16:48:23;;;;;;;11.30;6.63;;;5.80;93.20;;;;;;5095504;28;20067;-82
2022/01/19 16:50:53;;;;;;;12.60;6.90;;;5.70;93.40;;;;;;5095848;28;20086;-80
2022/01/19 16:53:26;;;;;;;12.55;7.15;;;5.70;93.50;;;;;;5095842;28;20163;-82
2022/01/19 16:55:58;;;;;;;13.00;7.28;;;5.70;93.70;;;;;;5095020;28;20135;-82
2022/01/19 16:58:27;;;;;;;13.02;7.22;;;5.70;93.80;;;;;;5094222;28;20048;-82
2022/01/19 17:00:57;;;;;;;12.38;7.03;;;5.60;94.10;;;;;;5087975;28;20131;-80
2022/01/19 17:03:24;;;;;;;11.40;6.45;;;5.60;94.30;;;;;;5074991;28;20048;-82
2022/01/19 17:05:52;;;;;;;13.43;7.30;;;5.50;94.40;;;;;;5083051;28;20535;-82
2022/01/19 17:08:19;;;;;;;13.68;7.43;;;5.50;94.60;;;;;;5085002;28;20505;-83
2022/01/19 17:10:50;;;;;;;13.88;7.25;;;5.50;94.70;;;;;;5087334;28;20146;-82
2022/01/19 17:13:30;;;;;;;13.07;7.30;;;5.50;94.70;;;;;;5101570;28;20050;-82
2022/01/19 17:16:08;;;;;;;13.55;7.45;;;5.50;94.80;;;;;;5095259;28;20489;-80
2022/01/19 17:18:35;;;;;;;11.93;7.05;;;5.50;94.90;;;;;;5081517;28;20048;-82
2022/01/19 17:21:02;;;;;;;13.80;7.90;;;5.40;94.90;;;;;;5081383;28;20106;-82
2022/01/19 17:23:29;;;;;;;11.85;6.97;;;5.40;94.90;;;;;;5083317;28;20557;-82
2022/01/19 17:25:58;;;;;;;13.82;7.07;;;5.40;95.20;;;;;;5074531;28;20469;-83
2022/01/19 17:28:27;;;;;;;13.57;7.55;;;5.50;95.00;;;;;;5089194;28;20083;-83
2022/01/19 17:30:54;;;;;;;12.57;7.15;;;5.40;95.00;;;;;;5080075;28;20048;-82
2022/01/19 17:33:21;;;;;;;13.65;7.47;;;5.50;95.00;;;;;;5075750;28;20079;-82
2022/01/19 17:35:48;;;;;;;14.30;7.25;;;5.50;95.00;;;;;;5080842;28;20131;-83
2022/01/19 17:38:15;;;;;;;13.25;7.05;;;5.50;95.10;;;;;;5094329;28;20052;-82
2022/01/19 17:40:44;;;;;;;14.13;7.30;;;5.40;95.10;;;;;;5078339;28;20409;-82
2022/01/19 17:43:13;;;;;;;14.20;7.78;;;5.40;95.20;;;;;;5088937;28;20420;-82
2022/01/19 17:45:48;;;;;;;13.90;7.60;;;5.40;95.30;;;;;;5085514;28;20075;-84
2022/01/19 17:48:24;;;;;;;13.75;8.13;;;5.50;95.30;;;;;;5085062;28;20058;-84
2022/01/19 17:50:58;;;;;;;13.40;7.00;;;5.40;95.40;;;;;;5084013;28;20423;-81
2022/01/19 17:53:25;;;;;;;14.13;7.65;;;5.40;95.40;;;;;;5085847;28;20073;-81
2022/01/19 17:55:53;;;;;;;14.05;7.57;;;5.40;95.50;;;;;;5093424;28;20128;-81
2022/01/19 17:58:20;;;;;;;14.07;7.53;;;5.40;95.50;;;;;;5093961;28;20044;-81
2022/01/19 18:00:49;;;;;;;16.13;8.27;;;5.40;95.60;;;;;;5094128;28;20040;-81
2022/01/19 18:03:16;;;;;;;13.60;7.43;;;5.40;95.60;;;;;;5093638;28;20396;-82
2022/01/19 18:05:43;;;;;;;11.55;7.20;;;5.40;95.60;;;;;;5093607;28;20445;-82
2022/01/19 18:08:11;;;;;;;13.68;7.40;;;5.40;95.70;;;;;;5091997;28;20463;-81
2022/01/19 18:10:39;;;;;;;12.98;7.20;;;5.30;95.70;;;;;;5094047;28;20044;-82
2022/01/19 18:13:07;;;;;;;13.73;7.03;;;5.30;95.70;;;;;;5093373;28;20381;-85
2022/01/19 18:15:34;;;;;;;13.45;6.85;;;5.30;95.70;;;;;;5094356;28;20158;-81
2022/01/19 18:18:04;;;;;;;12.18;6.55;;;5.30;95.80;;;;;;5093878;28;20040;-80